Celestyal Crystal — 9HA2978 — position and weather

sailwx.info

Track history (hours):
 
Tides and Currents Weather Stations Pressure Air Temp Water Temp Dewpoint Dewpoint Depression Visibility Wind Speed Wind Dir Waves Ship Positions

Celestyal Crystal

Last reported at 2016-May-28 05:33 UTC. Time now 2016-May-28 11:55 UTC.
Position N 40°54' E 028°55'.

Length 162 m; draft 6.2 m.

Type: Passenger vessel. MMSI: 229001000.

Date/timePositionNaut miles runAvg speedWind from/ knotsBaromVisibWave heightAir tempDewpointWater temp
2016-May-28 05:33N 40°54' E 028°55'22414.6
2016-May-27 14:13N 38°39' E 025°03'5615.3
2016-May-27 10:34N 37°52' E 024°25'19 2.4
2016-May-27 02:28N 37°42' E 024°05'1011.2
2016-May-27 01:33N 37°33' E 024°12'1711.5
2016-May-27 00:05N 37°31' E 024°33'611.8
2016-May-26 23:33N 37°31' E 024°41'1211.6
2016-May-26 22:33N 37°32' E 024°56'1212.3
2016-May-26 21:33N 37°29' E 025°11'7 6.6
2016-May-26 20:32N 37°28' E 025°19'0 0.0
2016-May-26 19:32N 37°28' E 025°19'0 0.0
2016-May-26 18:32N 37°28' E 025°19'0 0.0
2016-May-26 17:32N 37°28' E 025°19'0 0.0
2016-May-26 16:32N 37°28' E 025°19'0 0.0
2016-May-26 15:32N 37°28' E 025°19'0 0.3
2016-May-26 14:34N 37°28' E 025°19'9 9.0
2016-May-26 13:33N 37°36' E 025°24'1211.9
2016-May-26 12:33N 37°44' E 025°35'  
2016-May-21 16:33N 40°54' E 028°51'9 0.8
2016-May-21 05:34N 40°60' E 028°60'1211.7
2016-May-21 04:33N 40°51' E 028°49'21114.8
2016-May-20 14:13N 38°45' E 025°08'1117.2
2016-May-20 13:33N 38°35' E 025°01'5016.7
2016-May-20 10:34N 37°53' E 024°28'22 2.7
2016-May-20 02:26N 37°41' E 024°05'1010.2
2016-May-20 01:27N 37°33' E 024°12'2312.1
2016-May-19 23:33N 37°31' E 024°41'1312.6
2016-May-19 22:33N 37°31' E 024°57'1312.8
2016-May-19 21:33N 37°29' E 025°13'5 5.2
2016-May-19 20:33N 37°28' E 025°19'0 0.0
2016-May-19 19:33N 37°28' E 025°19'0 0.0
2016-May-19 18:30N 37°28' E 025°19'0 0.0
2016-May-19 17:33N 37°28' E 025°19'0 0.0
2016-May-19 16:33N 37°28' E 025°19'0 0.0
2016-May-19 15:33N 37°28' E 025°19'0 0.0
2016-May-19 14:34N 37°28' E 025°19'7 6.5
2016-May-19 13:33N 37°34' E 025°22'  
Track history (hours):
 
Tides and Currents Weather Stations Pressure Air Temp Water Temp Dewpoint Dewpoint Depression Visibility Wind Speed Wind Dir Waves Ship Positions

Celestyal Crystal

Last reported at 2016-May-28 05:33 UTC. Time now 2016-May-28 11:55 UTC.
Position N 40°54' E 028°55'.

Length 162 m; draft 6.2 m.

Type: Passenger vessel. MMSI: 229001000.

Date/timePositionNaut miles runAvg speedWind from/ knotsBaromVisibWave heightAir tempDewpointWater temp
2016-May-28 05:33N 40°54' E 028°55'22414.6
2016-May-27 14:13N 38°39' E 025°03'5615.3
2016-May-27 10:34N 37°52' E 024°25'19 2.4
2016-May-27 02:28N 37°42' E 024°05'1011.2
2016-May-27 01:33N 37°33' E 024°12'1711.5
2016-May-27 00:05N 37°31' E 024°33'611.8
2016-May-26 23:33N 37°31' E 024°41'1211.6
2016-May-26 22:33N 37°32' E 024°56'1212.3
2016-May-26 21:33N 37°29' E 025°11'7 6.6
2016-May-26 20:32N 37°28' E 025°19'0 0.0
2016-May-26 19:32N 37°28' E 025°19'0 0.0
2016-May-26 18:32N 37°28' E 025°19'0 0.0
2016-May-26 17:32N 37°28' E 025°19'0 0.0
2016-May-26 16:32N 37°28' E 025°19'0 0.0
2016-May-26 15:32N 37°28' E 025°19'0 0.3
2016-May-26 14:34N 37°28' E 025°19'9 9.0
2016-May-26 13:33N 37°36' E 025°24'1211.9
2016-May-26 12:33N 37°44' E 025°35'  
2016-May-21 16:33N 40°54' E 028°51'9 0.8
2016-May-21 05:34N 40°60' E 028°60'1211.7
2016-May-21 04:33N 40°51' E 028°49'21114.8
2016-May-20 14:13N 38°45' E 025°08'1117.2
2016-May-20 13:33N 38°35' E 025°01'5016.7
2016-May-20 10:34N 37°53' E 024°28'22 2.7
2016-May-20 02:26N 37°41' E 024°05'1010.2
2016-May-20 01:27N 37°33' E 024°12'2312.1
2016-May-19 23:33N 37°31' E 024°41'1312.6
2016-May-19 22:33N 37°31' E 024°57'1312.8
2016-May-19 21:33N 37°29' E 025°13'5 5.2
2016-May-19 20:33N 37°28' E 025°19'0 0.0
2016-May-19 19:33N 37°28' E 025°19'0 0.0
2016-May-19 18:30N 37°28' E 025°19'0 0.0
2016-May-19 17:33N 37°28' E 025°19'0 0.0
2016-May-19 16:33N 37°28' E 025°19'0 0.0
2016-May-19 15:33N 37°28' E 025°19'0 0.0
2016-May-19 14:34N 37°28' E 025°19'7 6.5
2016-May-19 13:33N 37°34' E 025°22'  

Dump ship's entire track history